AV - LB | Pilotos de la V.A




 METAR AND TAF INFORMATION
METAR FOR EDLW
ADDS - METARS form results

(0315 UTC 19 May 2021)
Data provider http://aviationweather.gov/metar/data/
 
METAR text: EDLW 190250Z AUTO 18006KT 7000 // FEW038/// 07/06 Q1015
Conditions at: EDLW (DORTMUND/WICKEDE, DE) observed 0250 UTC 19 May 2021
Temperature: 7.0°C (45°F)
Dewpoint: 6.0°C (43°F) [RH = 93%]
Pressure (altimeter): 29.97 inches Hg (1015.0 mb)
Winds: from the S (180 degrees) at 7 MPH (6 knots; 3.1 m/s)
Visibility: 4 miles ( 7 km)
Ceiling: at least 12,000 feet AGL
Clouds: few clouds at 3800 feet AGL
Weather: no significant weather observed at this time

METAR text: EDLW 190220Z AUTO 18007KT 7000 // BKN035/// 08/07 Q1015
Conditions at: EDLW (DORTMUND/WICKEDE, DE) observed 0220 UTC 19 May 2021
Temperature: 8.0°C (46°F)
Dewpoint: 7.0°C (45°F) [RH = 93%]
Pressure (altimeter): 29.97 inches Hg (1015.0 mb)
Winds: from the S (180 degrees) at 8 MPH (7 knots; 3.6 m/s)
Visibility: 4 miles ( 7 km)
Ceiling: 3500 feet AGL
Clouds: broken clouds at 3500 feet AGL
Weather: no significant weather observed at this time

Forecast for: EDLW (DORTMUND/WICKEDE, DE)
Text: TAF EDLW 181700Z 1818/1918 23006KT 9999 SCT030
Forecast period: 1800 UTC 18 May 2021 to 1800 UTC 19 May 2021
Forecast type: FROM: standard forecast or significant change
Winds: from the SW (230 degrees) at 7 MPH (6 knots; 3.1 m/s)
Visibility: 6 or more miles (10+ km)
Ceiling: at least 12,000 feet AGL
Clouds: scattered clouds at 3000 feet AGL
Weather: no significant weather forecast for this period
Text: TEMPO 1912/1918 24011KT SHRA BKN020CB
Forecast period: 1200 to 1800 UTC 19 May 2021
Forecast type: TEMPORARY: The following changes expected for less than half the time period
Winds: from the WSW (240 degrees) at 13 MPH (11 knots; 5.7 m/s)
Visibility: missing
Ceiling: 2000 feet AGL
Clouds: broken clouds at 2000 feet AGL
Weather: SHRA  (rain showers)
Text: PROB40
Forecast period: 1200 to 1800 UTC 19 May 2021
Forecast type: TEMPORARY: The following changes expected for less than half the time period
Winds: from the WSW (250 degrees) at 17 MPH (15 knots; 7.7 m/s)
gusting to 29 MPH (25 knots; 12.9 m/s)
Visibility: 2.49 miles (4.01 km)
Ceiling: unknown
Clouds: missing
Weather: TSRA  (rain associated with thunderstorm(s))

 AIRPORT MAP

 RUNWAY INFORMATION
Runway 06 Runway length 6562 ft Runway width 148 ft
Runway elevation 418 ft Runway displaced threshold 984 ft Runway heading 61
Runway 24 Runway length 6562 ft Runway width 148 ft
Runway elevation 401 ft Runway displaced threshold 984 ft Runway heading 241

 AIRPORT FREQUENCIES
Type AFIS Name LANGEN INF Frequency 129.875 MHZ
Type APP Name LANGEN RAD Frequency 125.225 MHZ
Type ATIS Name ATIS Frequency 125.125 MHZ
Type GND Name GND Frequency 121.825 MHZ
Type TWR Name TWR Frequency 134.175 MHZ

 AIRPORT NEAR NAVIGATION AIDS
Type VOR-DME Name Dortmund Frequency 112700 KHZ
Type VOR-DME Name Wickede Frequency 108650 KHZ
Type NDB Name Dortmund Frequency 357 KHZ